sensor_id;sensor_type;location;lat;lon;timestamp;pressure;altitude;pressure_sealevel;temperature;humidity
33265;BME280;31404;53.974;-1.086;2023-04-19T00:00:34;103142.53;;;8.76;74.48
33265;BME280;31404;53.974;-1.086;2023-04-19T00:05:36;103139.84;;;9.14;73.67
33265;BME280;31404;53.974;-1.086;2023-04-19T00:10:35;103137.94;;;8.72;76.16
33265;BME280;31404;53.974;-1.086;2023-04-19T00:15:36;103126.70;;;8.82;74.72
33265;BME280;31404;53.974;-1.086;2023-04-19T00:20:35;103120.97;;;8.17;77.90
33265;BME280;31404;53.974;-1.086;2023-04-19T00:25:35;103112.33;;;7.78;79.35
33265;BME280;31404;53.974;-1.086;2023-04-19T00:30:35;103112.29;;;8.00;79.56
33265;BME280;31404;53.974;-1.086;2023-04-19T00:35:35;103100.28;;;7.92;79.92
33265;BME280;31404;53.974;-1.086;2023-04-19T00:40:36;103097.91;;;8.35;79.47
33265;BME280;31404;53.974;-1.086;2023-04-19T00:45:36;103099.09;;;7.37;82.58
33265;BME280;31404;53.974;-1.086;2023-04-19T00:50:34;103095.82;;;7.59;82.87
33265;BME280;31404;53.974;-1.086;2023-04-19T00:55:35;103100.46;;;6.85;86.24
33265;BME280;31404;53.974;-1.086;2023-04-19T01:00:35;103094.55;;;7.43;84.96
33265;BME280;31404;53.974;-1.086;2023-04-19T01:05:35;103089.33;;;7.87;83.18
33265;BME280;31404;53.974;-1.086;2023-04-19T01:10:35;103087.62;;;8.28;80.56
33265;BME280;31404;53.974;-1.086;2023-04-19T01:15:35;103081.04;;;8.20;80.54
33265;BME280;31404;53.974;-1.086;2023-04-19T01:20:35;103080.66;;;8.12;81.59
33265;BME280;31404;53.974;-1.086;2023-04-19T01:25:35;103073.48;;;7.86;82.94
33265;BME280;31404;53.974;-1.086;2023-04-19T01:30:36;103064.71;;;8.32;79.88
33265;BME280;31404;53.974;-1.086;2023-04-19T01:35:36;103060.07;;;8.24;81.22
33265;BME280;31404;53.974;-1.086;2023-04-19T01:40:35;103054.87;;;7.85;81.80
33265;BME280;31404;53.974;-1.086;2023-04-19T01:45:35;103048.06;;;8.32;81.71
33265;BME280;31404;53.974;-1.086;2023-04-19T01:50:35;103050.07;;;8.52;80.32
33265;BME280;31404;53.974;-1.086;2023-04-19T01:55:35;103041.33;;;8.20;82.22
33265;BME280;31404;53.974;-1.086;2023-04-19T02:00:35;103039.80;;;8.22;83.23
33265;BME280;31404;53.974;-1.086;2023-04-19T02:05:34;103036.11;;;8.06;83.44
33265;BME280;31404;53.974;-1.086;2023-04-19T02:10:34;103038.98;;;7.98;83.17
33265;BME280;31404;53.974;-1.086;2023-04-19T02:15:36;103035.71;;;8.15;82.76
33265;BME280;31404;53.974;-1.086;2023-04-19T02:20:35;103030.95;;;8.54;80.90
33265;BME280;31404;53.974;-1.086;2023-04-19T02:25:35;103025.52;;;8.80;80.60
33265;BME280;31404;53.974;-1.086;2023-04-19T02:30:36;103026.06;;;8.96;79.83
33265;BME280;31404;53.974;-1.086;2023-04-19T02:35:35;103022.20;;;8.70;80.27
33265;BME280;31404;53.974;-1.086;2023-04-19T02:40:36;103020.04;;;9.52;77.66
33265;BME280;31404;53.974;-1.086;2023-04-19T02:45:35;103020.56;;;9.20;77.69
33265;BME280;31404;53.974;-1.086;2023-04-19T02:50:36;103025.50;;;9.09;78.81
33265;BME280;31404;53.974;-1.086;2023-04-19T02:55:35;103025.84;;;9.34;77.77
33265;BME280;31404;53.974;-1.086;2023-04-19T03:00:35;103031.37;;;8.42;81.54
33265;BME280;31404;53.974;-1.086;2023-04-19T03:05:35;103025.59;;;9.41;78.23
33265;BME280;31404;53.974;-1.086;2023-04-19T03:10:35;103026.76;;;8.82;80.45
33265;BME280;31404;53.974;-1.086;2023-04-19T03:15:35;103025.47;;;8.63;81.34
33265;BME280;31404;53.974;-1.086;2023-04-19T03:20:34;103026.37;;;9.18;78.22
33265;BME280;31404;53.974;-1.086;2023-04-19T03:25:35;103027.35;;;9.07;78.25
33265;BME280;31404;53.974;-1.086;2023-04-19T03:30:35;103025.64;;;9.36;77.58
33265;BME280;31404;53.974;-1.086;2023-04-19T03:35:35;103028.18;;;10.06;76.03
33265;BME280;31404;53.974;-1.086;2023-04-19T03:40:36;103027.20;;;9.83;76.82
33265;BME280;31404;53.974;-1.086;2023-04-19T03:45:35;103023.40;;;9.31;78.18
33265;BME280;31404;53.974;-1.086;2023-04-19T03:50:35;103023.86;;;9.22;78.13
33265;BME280;31404;53.974;-1.086;2023-04-19T03:55:35;103023.50;;;9.45;79.01
33265;BME280;31404;53.974;-1.086;2023-04-19T04:00:35;103029.28;;;9.84;76.67
33265;BME280;31404;53.974;-1.086;2023-04-19T04:05:35;103025.50;;;8.94;80.53
33265;BME280;31404;53.974;-1.086;2023-04-19T04:10:36;103026.64;;;9.70;78.18
33265;BME280;31404;53.974;-1.086;2023-04-19T04:15:35;103025.69;;;9.25;79.54
33265;BME280;31404;53.974;-1.086;2023-04-19T04:20:35;103025.69;;;9.73;78.16
33265;BME280;31404;53.974;-1.086;2023-04-19T04:25:35;103020.74;;;9.55;78.47
33265;BME280;31404;53.974;-1.086;2023-04-19T04:30:35;103016.74;;;9.12;80.41
33265;BME280;31404;53.974;-1.086;2023-04-19T04:35:35;103021.34;;;9.87;77.60
33265;BME280;31404;53.974;-1.086;2023-04-19T04:40:35;103023.97;;;9.19;81.57
33265;BME280;31404;53.974;-1.086;2023-04-19T04:45:35;103019.52;;;9.42;80.07
33265;BME280;31404;53.974;-1.086;2023-04-19T04:50:36;103017.24;;;8.91;82.30
33265;BME280;31404;53.974;-1.086;2023-04-19T04:55:35;103025.44;;;7.94;86.96
33265;BME280;31404;53.974;-1.086;2023-04-19T05:00:35;103016.78;;;8.67;82.53
33265;BME280;31404;53.974;-1.086;2023-04-19T05:05:35;103022.32;;;8.43;83.86
33265;BME280;31404;53.974;-1.086;2023-04-19T05:10:35;103028.60;;;8.35;85.42
33265;BME280;31404;53.974;-1.086;2023-04-19T05:15:35;103028.94;;;9.48;80.37
33265;BME280;31404;53.974;-1.086;2023-04-19T05:20:35;103032.14;;;8.55;84.72
33265;BME280;31404;53.974;-1.086;2023-04-19T05:25:38;103039.78;;;7.85;87.88
33265;BME280;31404;53.974;-1.086;2023-04-19T05:30:35;103042.11;;;7.30;93.34
33265;BME280;31404;53.974;-1.086;2023-04-19T05:35:35;103042.96;;;7.95;88.68
33265;BME280;31404;53.974;-1.086;2023-04-19T05:40:35;103041.24;;;8.58;85.87
33265;BME280;31404;53.974;-1.086;2023-04-19T05:45:34;103045.00;;;8.54;87.73
33265;BME280;31404;53.974;-1.086;2023-04-19T05:50:36;103045.50;;;8.81;84.36
33265;BME280;31404;53.974;-1.086;2023-04-19T05:55:35;103050.91;;;9.76;80.34
33265;BME280;31404;53.974;-1.086;2023-04-19T06:00:35;103047.38;;;7.87;86.78
33265;BME280;31404;53.974;-1.086;2023-04-19T06:05:35;103048.00;;;9.08;83.93
33265;BME280;31404;53.974;-1.086;2023-04-19T06:10:36;103046.90;;;8.98;83.97
33265;BME280;31404;53.974;-1.086;2023-04-19T06:15:35;103050.94;;;9.59;82.60
33265;BME280;31404;53.974;-1.086;2023-04-19T06:20:35;103051.68;;;9.12;83.77
33265;BME280;31404;53.974;-1.086;2023-04-19T06:25:35;103055.68;;;8.02;90.51
33265;BME280;31404;53.974;-1.086;2023-04-19T06:30:35;103055.95;;;8.72;87.10
33265;BME280;31404;53.974;-1.086;2023-04-19T06:35:35;103057.07;;;7.64;90.12
33265;BME280;31404;53.974;-1.086;2023-04-19T06:40:36;103057.63;;;7.54;93.63
33265;BME280;31404;53.974;-1.086;2023-04-19T06:45:35;103057.39;;;9.52;84.32
33265;BME280;31404;53.974;-1.086;2023-04-19T06:50:35;103057.36;;;10.32;80.74
33265;BME280;31404;53.974;-1.086;2023-04-19T06:55:36;103061.30;;;8.00;92.37
33265;BME280;31404;53.974;-1.086;2023-04-19T07:00:35;103061.70;;;9.27;87.26
33265;BME280;31404;53.974;-1.086;2023-04-19T07:05:35;103060.17;;;9.38;86.03
33265;BME280;31404;53.974;-1.086;2023-04-19T07:10:35;103059.46;;;8.99;85.50
33265;BME280;31404;53.974;-1.086;2023-04-19T07:15:35;103065.11;;;6.68;95.51
33265;BME280;31404;53.974;-1.086;2023-04-19T07:20:34;103069.77;;;5.71;100.00
33265;BME280;31404;53.974;-1.086;2023-04-19T07:25:35;103072.14;;;7.15;100.00
33265;BME280;31404;53.974;-1.086;2023-04-19T07:30:35;103071.83;;;6.40;100.00
33265;BME280;31404;53.974;-1.086;2023-04-19T07:40:35;103071.55;;;5.28;100.00
33265;BME280;31404;53.974;-1.086;2023-04-19T07:45:34;103066.03;;;6.04;100.00
33265;BME280;31404;53.974;-1.086;2023-04-19T07:50:35;103064.07;;;5.26;100.00
33265;BME280;31404;53.974;-1.086;2023-04-19T07:55:35;103061.63;;;5.81;100.00
33265;BME280;31404;53.974;-1.086;2023-04-19T08:00:35;103063.19;;;4.23;100.00
33265;BME280;31404;53.974;-1.086;2023-04-19T08:05:35;103069.85;;;4.77;100.00
33265;BME280;31404;53.974;-1.086;2023-04-19T08:10:35;103073.80;;;3.89;100.00
33265;BME280;31404;53.974;-1.086;2023-04-19T08:15:36;103069.34;;;4.99;100.00
33265;BME280;31404;53.974;-1.086;2023-04-19T08:20:35;103073.90;;;5.05;100.00
33265;BME280;31404;53.974;-1.086;2023-04-19T08:25:35;103078.52;;;4.52;100.00
33265;BME280;31404;53.974;-1.086;2023-04-19T08:30:35;103076.92;;;5.15;100.00
33265;BME280;31404;53.974;-1.086;2023-04-19T08:35:35;103069.79;;;5.28;100.00
33265;BME280;31404;53.974;-1.086;2023-04-19T08:45:36;103083.86;;;4.55;100.00
33265;BME280;31404;53.974;-1.086;2023-04-19T08:50:35;103076.54;;;5.09;100.00
33265;BME280;31404;53.974;-1.086;2023-04-19T08:55:35;103089.55;;;5.54;100.00
33265;BME280;31404;53.974;-1.086;2023-04-19T09:00:38;103075.40;;;4.94;100.00
33265;BME280;31404;53.974;-1.086;2023-04-19T09:05:35;103075.51;;;4.84;100.00
33265;BME280;31404;53.974;-1.086;2023-04-19T09:10:35;103079.69;;;4.88;100.00
33265;BME280;31404;53.974;-1.086;2023-04-19T09:15:36;103082.35;;;6.24;100.00
33265;BME280;31404;53.974;-1.086;2023-04-19T09:20:36;103077.37;;;5.36;100.00
33265;BME280;31404;53.974;-1.086;2023-04-19T09:25:36;103074.23;;;6.44;100.00
33265;BME280;31404;53.974;-1.086;2023-04-19T09:30:35;103077.56;;;5.66;100.00
33265;BME280;31404;53.974;-1.086;2023-04-19T09:40:35;103072.41;;;7.16;100.00
33265;BME280;31404;53.974;-1.086;2023-04-19T09:50:36;103067.14;;;6.95;100.00
33265;BME280;31404;53.974;-1.086;2023-04-19T09:55:35;103067.58;;;7.72;100.00
33265;BME280;31404;53.974;-1.086;2023-04-19T10:00:35;103068.90;;;6.41;100.00
33265;BME280;31404;53.974;-1.086;2023-04-19T10:05:36;103065.14;;;7.35;100.00
33265;BME280;31404;53.974;-1.086;2023-04-19T10:10:36;103069.61;;;5.37;100.00
33265;BME280;31404;53.974;-1.086;2023-04-19T10:15:36;103060.43;;;7.21;100.00
33265;BME280;31404;53.974;-1.086;2023-04-19T10:20:45;103058.87;;;7.91;99.30
33265;BME280;31404;53.974;-1.086;2023-04-19T10:25:37;103059.10;;;6.60;100.00
33265;BME280;31404;53.974;-1.086;2023-04-19T10:30:35;103058.89;;;6.37;100.00
33265;BME280;31404;53.974;-1.086;2023-04-19T10:35:36;103050.65;;;7.46;98.25
33265;BME280;31404;53.974;-1.086;2023-04-19T10:45:36;103047.00;;;7.51;93.45
33265;BME280;31404;53.974;-1.086;2023-04-19T11:00:35;103048.34;;;8.49;87.11
33265;BME280;31404;53.974;-1.086;2023-04-19T11:10:35;103034.83;;;7.02;94.06
33265;BME280;31404;53.974;-1.086;2023-04-19T11:15:33;103042.05;;;7.62;92.78
33265;BME280;31404;53.974;-1.086;2023-04-19T11:20:35;103044.05;;;7.71;93.05
33265;BME280;31404;53.974;-1.086;2023-04-19T11:25:35;103034.68;;;8.39;87.19
33265;BME280;31404;53.974;-1.086;2023-04-19T11:30:35;103043.80;;;7.69;88.16
33265;BME280;31404;53.974;-1.086;2023-04-19T11:35:35;103038.29;;;7.97;87.98
33265;BME280;31404;53.974;-1.086;2023-04-19T11:40:36;103032.16;;;8.04;85.54
33265;BME280;31404;53.974;-1.086;2023-04-19T11:45:36;103033.88;;;8.40;82.26
33265;BME280;31404;53.974;-1.086;2023-04-19T11:50:37;103026.24;;;8.98;80.82
33265;BME280;31404;53.974;-1.086;2023-04-19T11:55:35;103024.33;;;8.69;82.61
33265;BME280;31404;53.974;-1.086;2023-04-19T12:00:35;103020.83;;;9.27;80.80
33265;BME280;31404;53.974;-1.086;2023-04-19T12:05:38;103022.93;;;9.44;79.32
33265;BME280;31404;53.974;-1.086;2023-04-19T12:10:35;103016.53;;;10.11;75.28
33265;BME280;31404;53.974;-1.086;2023-04-19T12:20:37;103030.15;;;7.94;76.36
33265;BME280;31404;53.974;-1.086;2023-04-19T12:25:35;103023.78;;;9.59;73.15
33265;BME280;31404;53.974;-1.086;2023-04-19T12:30:35;103022.37;;;9.16;72.04
33265;BME280;31404;53.974;-1.086;2023-04-19T12:35:35;103021.23;;;9.43;65.40
33265;BME280;31404;53.974;-1.086;2023-04-19T12:40:36;103018.01;;;9.00;63.44
33265;BME280;31404;53.974;-1.086;2023-04-19T12:45:35;103014.76;;;8.65;64.82
33265;BME280;31404;53.974;-1.086;2023-04-19T12:50:35;103014.10;;;9.05;61.34
33265;BME280;31404;53.974;-1.086;2023-04-19T12:55:35;103021.69;;;9.50;62.89
33265;BME280;31404;53.974;-1.086;2023-04-19T13:00:35;103021.86;;;9.63;62.68
33265;BME280;31404;53.974;-1.086;2023-04-19T13:05:35;103030.05;;;9.82;59.67
33265;BME280;31404;53.974;-1.086;2023-04-19T13:10:35;103029.19;;;9.75;60.73
33265;BME280;31404;53.974;-1.086;2023-04-19T13:15:35;103019.72;;;9.35;59.93
33265;BME280;31404;53.974;-1.086;2023-04-19T13:20:35;103018.11;;;9.21;58.57
33265;BME280;31404;53.974;-1.086;2023-04-19T13:25:35;103026.14;;;8.85;58.33
33265;BME280;31404;53.974;-1.086;2023-04-19T13:30:35;103022.21;;;9.01;58.68
33265;BME280;31404;53.974;-1.086;2023-04-19T13:35:35;103017.20;;;9.60;60.13
33265;BME280;31404;53.974;-1.086;2023-04-19T13:40:35;103017.69;;;9.00;58.98
33265;BME280;31404;53.974;-1.086;2023-04-19T13:45:35;103024.44;;;8.28;60.90
33265;BME280;31404;53.974;-1.086;2023-04-19T13:50:35;103012.99;;;8.84;61.63
33265;BME280;31404;53.974;-1.086;2023-04-19T13:55:35;103011.99;;;8.93;63.00
33265;BME280;31404;53.974;-1.086;2023-04-19T14:00:35;103011.14;;;10.09;58.72
33265;BME280;31404;53.974;-1.086;2023-04-19T14:05:35;103009.87;;;9.79;58.40
33265;BME280;31404;53.974;-1.086;2023-04-19T14:10:35;103001.68;;;9.03;60.21
33265;BME280;31404;53.974;-1.086;2023-04-19T14:15:35;103001.82;;;9.10;60.12
33265;BME280;31404;53.974;-1.086;2023-04-19T14:20:35;103000.95;;;8.57;60.51
33265;BME280;31404;53.974;-1.086;2023-04-19T14:25:35;103003.64;;;8.99;59.67
33265;BME280;31404;53.974;-1.086;2023-04-19T14:30:35;103001.11;;;10.03;58.61
33265;BME280;31404;53.974;-1.086;2023-04-19T14:35:36;102992.37;;;10.69;59.13
33265;BME280;31404;53.974;-1.086;2023-04-19T14:40:35;102993.20;;;9.65;59.21
33265;BME280;31404;53.974;-1.086;2023-04-19T14:45:35;102978.85;;;9.20;58.28
33265;BME280;31404;53.974;-1.086;2023-04-19T14:50:35;102975.78;;;9.51;58.19
33265;BME280;31404;53.974;-1.086;2023-04-19T14:55:36;102972.75;;;8.92;59.50
33265;BME280;31404;53.974;-1.086;2023-04-19T15:00:35;102973.88;;;8.67;59.59
33265;BME280;31404;53.974;-1.086;2023-04-19T15:05:35;102973.84;;;9.71;58.63
33265;BME280;31404;53.974;-1.086;2023-04-19T15:10:35;102977.29;;;8.74;60.66
33265;BME280;31404;53.974;-1.086;2023-04-19T15:15:35;102977.50;;;9.58;58.95
33265;BME280;31404;53.974;-1.086;2023-04-19T15:20:35;102976.74;;;8.15;60.67
33265;BME280;31404;53.974;-1.086;2023-04-19T15:25:35;102980.07;;;8.58;61.03
33265;BME280;31404;53.974;-1.086;2023-04-19T15:30:35;102975.03;;;8.04;60.69
33265;BME280;31404;53.974;-1.086;2023-04-19T15:35:34;102973.84;;;8.17;61.42
33265;BME280;31404;53.974;-1.086;2023-04-19T15:40:35;102970.24;;;8.69;61.10
33265;BME280;31404;53.974;-1.086;2023-04-19T15:45:35;102983.74;;;8.41;60.90
33265;BME280;31404;53.974;-1.086;2023-04-19T15:50:35;102981.75;;;8.09;61.66
33265;BME280;31404;53.974;-1.086;2023-04-19T15:55:35;102972.02;;;8.81;59.54
33265;BME280;31404;53.974;-1.086;2023-04-19T16:00:35;102979.55;;;9.27;60.35
33265;BME280;31404;53.974;-1.086;2023-04-19T16:05:35;102988.57;;;9.46;57.16
33265;BME280;31404;53.974;-1.086;2023-04-19T16:10:35;102989.71;;;8.27;60.04
33265;BME280;31404;53.974;-1.086;2023-04-19T16:15:35;102985.35;;;9.16;60.92
33265;BME280;31404;53.974;-1.086;2023-04-19T16:20:35;102983.48;;;8.47;61.27
33265;BME280;31404;53.974;-1.086;2023-04-19T16:25:35;102984.77;;;8.80;59.65
33265;BME280;31404;53.974;-1.086;2023-04-19T16:30:29;102979.92;;;8.41;60.51
33265;BME280;31404;53.974;-1.086;2023-04-19T16:35:36;102980.41;;;8.18;61.29
33265;BME280;31404;53.974;-1.086;2023-04-19T16:40:35;102976.34;;;8.78;61.14
33265;BME280;31404;53.974;-1.086;2023-04-19T16:45:35;102978.65;;;8.70;61.35
33265;BME280;31404;53.974;-1.086;2023-04-19T16:50:35;102976.32;;;8.60;61.93
33265;BME280;31404;53.974;-1.086;2023-04-19T16:55:36;102977.04;;;8.91;60.57
33265;BME280;31404;53.974;-1.086;2023-04-19T17:00:35;102983.20;;;9.84;60.42
33265;BME280;31404;53.974;-1.086;2023-04-19T17:05:35;102983.67;;;9.63;60.23
33265;BME280;31404;53.974;-1.086;2023-04-19T17:10:35;102987.06;;;8.27;60.53
33265;BME280;31404;53.974;-1.086;2023-04-19T17:15:36;102983.66;;;8.52;59.55
33265;BME280;31404;53.974;-1.086;2023-04-19T17:20:35;102975.49;;;7.30;60.29
33265;BME280;31404;53.974;-1.086;2023-04-19T17:25:35;102981.28;;;7.97;59.99
33265;BME280;31404;53.974;-1.086;2023-04-19T17:30:35;102975.56;;;7.87;59.56
33265;BME280;31404;53.974;-1.086;2023-04-19T17:35:35;102969.26;;;8.27;58.36
33265;BME280;31404;53.974;-1.086;2023-04-19T17:40:35;102967.52;;;9.73;55.55
33265;BME280;31404;53.974;-1.086;2023-04-19T17:45:35;102959.80;;;8.53;57.54
33265;BME280;31404;53.974;-1.086;2023-04-19T17:50:38;102957.55;;;7.29;60.70
33265;BME280;31404;53.974;-1.086;2023-04-19T17:55:35;102956.02;;;7.04;61.63
33265;BME280;31404;53.974;-1.086;2023-04-19T18:00:35;102959.20;;;6.86;63.05
33265;BME280;31404;53.974;-1.086;2023-04-19T18:05:37;102955.03;;;7.32;62.58
33265;BME280;31404;53.974;-1.086;2023-04-19T18:10:35;102957.76;;;6.86;64.65
33265;BME280;31404;53.974;-1.086;2023-04-19T18:15:35;102957.09;;;9.00;61.65
33265;BME280;31404;53.974;-1.086;2023-04-19T18:20:35;102960.75;;;9.54;62.34
33265;BME280;31404;53.974;-1.086;2023-04-19T18:25:34;102964.51;;;10.81;61.53
33265;BME280;31404;53.974;-1.086;2023-04-19T18:30:35;102972.66;;;7.92;69.28
33265;BME280;31404;53.974;-1.086;2023-04-19T18:35:35;102972.25;;;9.99;64.35
33265;BME280;31404;53.974;-1.086;2023-04-19T18:40:35;102972.50;;;10.67;61.81
33265;BME280;31404;53.974;-1.086;2023-04-19T18:45:35;102977.22;;;11.08;60.18
33265;BME280;31404;53.974;-1.086;2023-04-19T18:50:36;102977.58;;;9.87;62.42
33265;BME280;31404;53.974;-1.086;2023-04-19T18:55:35;102980.85;;;7.84;65.75
33265;BME280;31404;53.974;-1.086;2023-04-19T19:00:34;102984.50;;;6.55;68.72
33265;BME280;31404;53.974;-1.086;2023-04-19T19:05:35;102988.30;;;6.62;69.91
33265;BME280;31404;53.974;-1.086;2023-04-19T19:10:35;102989.63;;;7.48;68.95
33265;BME280;31404;53.974;-1.086;2023-04-19T19:15:35;102984.31;;;8.33;67.84
33265;BME280;31404;53.974;-1.086;2023-04-19T19:20:35;102986.71;;;9.60;63.75
33265;BME280;31404;53.974;-1.086;2023-04-19T19:25:35;102987.29;;;7.87;69.30
33265;BME280;31404;53.974;-1.086;2023-04-19T19:30:35;102976.06;;;10.94;60.52
33265;BME280;31404;53.974;-1.086;2023-04-19T19:35:35;102983.47;;;11.61;58.99
33265;BME280;31404;53.974;-1.086;2023-04-19T19:40:35;102978.96;;;9.90;62.62
33265;BME280;31404;53.974;-1.086;2023-04-19T19:45:35;102983.74;;;9.72;64.56
33265;BME280;31404;53.974;-1.086;2023-04-19T19:50:35;102970.58;;;10.31;63.11
33265;BME280;31404;53.974;-1.086;2023-04-19T19:55:36;102967.89;;;10.28;63.01
33265;BME280;31404;53.974;-1.086;2023-04-19T20:00:34;102964.68;;;10.67;63.40
33265;BME280;31404;53.974;-1.086;2023-04-19T20:05:36;102960.65;;;10.33;63.16
33265;BME280;31404;53.974;-1.086;2023-04-19T20:10:36;102970.37;;;9.49;65.17
33265;BME280;31404;53.974;-1.086;2023-04-19T20:15:36;102974.17;;;9.40;67.29
33265;BME280;31404;53.974;-1.086;2023-04-19T20:20:37;102974.41;;;8.89;68.83
33265;BME280;31404;53.974;-1.086;2023-04-19T20:25:35;102977.36;;;9.49;67.31
33265;BME280;31404;53.974;-1.086;2023-04-19T20:30:36;102967.84;;;8.70;70.51
33265;BME280;31404;53.974;-1.086;2023-04-19T20:35:36;102966.47;;;9.07;70.44
33265;BME280;31404;53.974;-1.086;2023-04-19T20:40:36;102967.42;;;9.24;69.98
33265;BME280;31404;53.974;-1.086;2023-04-19T20:55:37;102964.13;;;9.27;68.08
33265;BME280;31404;53.974;-1.086;2023-04-19T21:00:36;102965.28;;;8.80;69.50
33265;BME280;31404;53.974;-1.086;2023-04-19T21:05:35;102961.30;;;8.23;71.65
33265;BME280;31404;53.974;-1.086;2023-04-19T21:10:36;102954.53;;;7.92;73.19
33265;BME280;31404;53.974;-1.086;2023-04-19T21:15:35;102953.27;;;8.95;70.99
33265;BME280;31404;53.974;-1.086;2023-04-19T21:20:36;102953.02;;;8.75;70.60
33265;BME280;31404;53.974;-1.086;2023-04-19T21:25:35;102953.67;;;7.98;73.07
33265;BME280;31404;53.974;-1.086;2023-04-19T21:30:36;102953.51;;;8.05;73.58
33265;BME280;31404;53.974;-1.086;2023-04-19T21:35:35;102949.22;;;8.03;73.64
33265;BME280;31404;53.974;-1.086;2023-04-19T21:40:35;102948.49;;;7.93;74.08
33265;BME280;31404;53.974;-1.086;2023-04-19T21:45:35;102944.23;;;8.08;74.88
33265;BME280;31404;53.974;-1.086;2023-04-19T21:50:35;102937.31;;;8.21;73.76
33265;BME280;31404;53.974;-1.086;2023-04-19T21:55:35;102936.58;;;8.05;73.78
33265;BME280;31404;53.974;-1.086;2023-04-19T22:00:35;102932.15;;;8.42;73.21
33265;BME280;31404;53.974;-1.086;2023-04-19T22:05:36;102925.69;;;8.15;73.60
33265;BME280;31404;53.974;-1.086;2023-04-19T22:10:35;102925.31;;;7.45;75.91
33265;BME280;31404;53.974;-1.086;2023-04-19T22:15:35;102922.00;;;7.40;75.61
33265;BME280;31404;53.974;-1.086;2023-04-19T22:20:35;102921.76;;;7.57;74.82
33265;BME280;31404;53.974;-1.086;2023-04-19T22:25:35;102922.56;;;8.58;71.25
33265;BME280;31404;53.974;-1.086;2023-04-19T22:30:34;102920.94;;;7.83;75.75
33265;BME280;31404;53.974;-1.086;2023-04-19T22:35:35;102916.05;;;8.26;74.13
33265;BME280;31404;53.974;-1.086;2023-04-19T22:40:35;102915.17;;;8.69;73.67
33265;BME280;31404;53.974;-1.086;2023-04-19T22:45:35;102914.82;;;9.38;71.16
33265;BME280;31404;53.974;-1.086;2023-04-19T22:50:35;102910.65;;;9.36;69.88
33265;BME280;31404;53.974;-1.086;2023-04-19T22:55:35;102910.84;;;8.78;73.09
33265;BME280;31404;53.974;-1.086;2023-04-19T23:00:40;102908.50;;;9.53;71.12
33265;BME280;31404;53.974;-1.086;2023-04-19T23:05:35;102910.78;;;8.42;74.31
33265;BME280;31404;53.974;-1.086;2023-04-19T23:10:35;102906.18;;;8.55;74.62
33265;BME280;31404;53.974;-1.086;2023-04-19T23:15:35;102907.73;;;8.08;77.32
33265;BME280;31404;53.974;-1.086;2023-04-19T23:20:35;102910.13;;;6.91;82.42
33265;BME280;31404;53.974;-1.086;2023-04-19T23:25:35;102904.30;;;7.08;79.92
33265;BME280;31404;53.974;-1.086;2023-04-19T23:30:35;102897.39;;;7.94;77.72
33265;BME280;31404;53.974;-1.086;2023-04-19T23:35:35;102896.03;;;6.93;83.44
33265;BME280;31404;53.974;-1.086;2023-04-19T23:40:36;102889.73;;;6.98;82.45
33265;BME280;31404;53.974;-1.086;2023-04-19T23:45:35;102889.87;;;8.17;77.27
33265;BME280;31404;53.974;-1.086;2023-04-19T23:50:35;102890.58;;;8.64;75.53
33265;BME280;31404;53.974;-1.086;2023-04-19T23:55:36;102894.71;;;6.97;83.09
